createdAt,value
2019-03-26T00:02:49.134Z,91.30
2019-03-26T00:04:06.397Z,91.30
2019-03-26T00:05:23.174Z,91.20
2019-03-26T00:06:39.621Z,91.20
2019-03-26T00:07:55.953Z,91.30
2019-03-26T00:09:12.348Z,91.40
2019-03-26T00:10:28.766Z,91.50
2019-03-26T00:11:45.192Z,91.60
2019-03-26T00:13:01.754Z,91.60
2019-03-26T00:14:18.873Z,91.70
2019-03-26T00:15:35.652Z,91.80
2019-03-26T00:16:52.837Z,91.80
2019-03-26T00:18:09.196Z,91.90
2019-03-26T00:19:26.288Z,91.90
2019-03-26T00:20:43.336Z,92.00
2019-03-26T00:22:00.136Z,92.00
2019-03-26T00:23:16.492Z,92.10
2019-03-26T00:24:32.785Z,92.30
2019-03-26T00:25:49.521Z,92.30
2019-03-26T00:27:07.821Z,92.40
2019-03-26T00:28:24.398Z,92.40
2019-03-26T00:29:40.907Z,92.50
2019-03-26T00:30:57.681Z,92.60
2019-03-26T00:32:14.723Z,92.60
2019-03-26T00:33:36.739Z,92.70
2019-03-26T00:34:49.883Z,92.90
2019-03-26T00:36:06.485Z,92.90
2019-03-26T00:37:24.100Z,92.90
2019-03-26T00:38:40.534Z,92.90
2019-03-26T00:39:57.501Z,92.70
2019-03-26T00:41:14.174Z,92.60
2019-03-26T00:42:30.753Z,92.60
2019-03-26T00:43:47.360Z,92.60
2019-03-26T00:45:04.426Z,92.70
2019-03-26T00:46:21.018Z,92.70
2019-03-26T00:47:37.588Z,92.90
2019-03-26T00:48:53.190Z,92.90
2019-03-26T00:50:36.567Z,92.90
2019-03-26T00:52:00.925Z,92.90
2019-03-26T00:53:17.480Z,93.20
2019-03-26T00:54:33.975Z,93.30
2019-03-26T00:55:51.187Z,93.30
2019-03-26T00:57:08.217Z,93.30
2019-03-26T00:58:25.056Z,93.30
2019-03-26T00:59:41.793Z,93.40
2019-03-26T01:00:58.138Z,93.40
2019-03-26T01:02:15.144Z,93.50
2019-03-26T01:03:30.579Z,93.40
2019-03-26T01:04:55.085Z,93.40
2019-03-26T01:06:19.446Z,93.30
2019-03-26T01:07:35.733Z,93.20
2019-03-26T01:08:55.944Z,93.20
2019-03-26T01:10:12.608Z,93.30
2019-03-26T01:11:29.211Z,93.30
2019-03-26T01:12:46.108Z,93.30
2019-03-26T01:14:02.757Z,93.30
2019-03-26T01:15:19.270Z,93.20
2019-03-26T01:16:35.841Z,93.30
2019-03-26T01:17:53.072Z,93.30
2019-03-26T01:19:10.251Z,93.30
2019-03-26T01:20:26.701Z,93.10
2019-03-26T01:21:43.401Z,92.80
2019-03-26T01:22:58.944Z,92.50
2019-03-26T01:24:23.305Z,92.30
2019-03-26T01:25:40.096Z,92.10
2019-03-26T01:26:57.871Z,92.00
2019-03-26T01:28:14.797Z,92.20
2019-03-26T01:29:31.635Z,92.40
2019-03-26T01:30:47.086Z,92.40
2019-03-26T01:32:11.444Z,92.60
2019-03-26T01:33:27.937Z,92.70
2019-03-26T01:34:46.131Z,92.70
2019-03-26T01:36:02.810Z,92.70
2019-03-26T01:37:19.396Z,92.70
2019-03-26T01:38:35.757Z,92.60
2019-03-26T01:39:52.298Z,92.70
2019-03-26T01:41:08.749Z,92.80
2019-03-26T01:42:25.105Z,92.80
2019-03-26T01:43:41.931Z,92.90
2019-03-26T01:44:58.447Z,92.90
2019-03-26T01:46:15.323Z,93.00
2019-03-26T01:47:32.434Z,93.00
2019-03-26T01:48:48.697Z,93.00
2019-03-26T01:50:05.630Z,93.10
2019-03-26T01:51:22.000Z,93.20
2019-03-26T01:52:38.524Z,93.10
2019-03-26T01:53:55.617Z,93.10
2019-03-26T01:55:11.978Z,92.90
2019-03-26T01:56:28.468Z,92.70
2019-03-26T01:57:45.336Z,92.70
2019-03-26T01:59:01.988Z,92.70
2019-03-26T02:00:18.501Z,92.80
2019-03-26T02:01:34.871Z,93.00
2019-03-26T02:02:51.326Z,93.10
2019-03-26T02:04:08.328Z,93.30
2019-03-26T02:05:25.081Z,93.30
2019-03-26T02:06:42.152Z,93.30
2019-03-26T02:07:59.120Z,93.20
2019-03-26T02:09:15.509Z,93.10
2019-03-26T02:10:32.005Z,93.00
2019-03-26T02:11:49.228Z,93.00
2019-03-26T02:13:05.795Z,93.00
2019-03-26T02:14:22.710Z,92.60
2019-03-26T02:15:39.421Z,92.50
2019-03-26T02:16:56.321Z,92.40
2019-03-26T02:18:12.700Z,92.40
2019-03-26T02:19:29.186Z,92.50
2019-03-26T02:20:45.876Z,92.40
2019-03-26T02:22:02.374Z,92.40
2019-03-26T02:23:19.694Z,92.60
2019-03-26T02:24:36.286Z,92.80
2019-03-26T02:25:51.695Z,93.10
2019-03-26T02:27:16.122Z,93.10
2019-03-26T02:28:32.611Z,93.30
2019-03-26T02:29:49.766Z,93.30
2019-03-26T02:31:06.549Z,93.40
2019-03-26T02:32:23.442Z,93.40
2019-03-26T02:33:40.030Z,93.70
2019-03-26T02:34:57.102Z,94.10
2019-03-26T02:36:13.617Z,94.10
2019-03-26T02:37:30.329Z,94.30
2019-03-26T02:38:47.027Z,94.40
2019-03-26T02:40:03.626Z,94.50
2019-03-26T02:41:21.082Z,94.60
2019-03-26T02:42:37.510Z,94.60
2019-03-26T02:43:54.212Z,94.60
2019-03-26T02:45:10.689Z,94.50
2019-03-26T02:46:27.161Z,94.40
2019-03-26T02:47:32.772Z,94.30
2019-03-26T02:48:57.150Z,94.30
2019-03-26T02:50:13.721Z,94.30
2019-03-26T02:51:19.384Z,94.20
2019-03-26T02:52:43.806Z,94.10
2019-03-26T02:54:00.372Z,94.00
2019-03-26T02:55:17.481Z,93.90
2019-03-26T02:56:34.094Z,93.80
2019-03-26T02:57:50.893Z,93.80
2019-03-26T02:59:08.858Z,93.80
2019-03-26T03:00:25.462Z,93.60
2019-03-26T03:01:40.885Z,93.60
2019-03-26T03:03:05.303Z,93.40
2019-03-26T03:04:22.230Z,93.40
2019-03-26T03:05:41.355Z,93.40
2019-03-26T03:06:57.660Z,93.30
2019-03-26T03:08:14.064Z,93.20
2019-03-26T03:09:30.484Z,93.20
2019-03-26T03:10:46.801Z,93.20
2019-03-26T03:12:03.985Z,93.30
2019-03-26T03:13:20.436Z,93.30
2019-03-26T03:14:36.929Z,93.30
2019-03-26T03:15:53.855Z,93.30
2019-03-26T03:17:10.378Z,93.40
2019-03-26T03:18:27.327Z,93.40
2019-03-26T03:19:43.746Z,93.40
2019-03-26T03:21:01.074Z,93.40
2019-03-26T03:22:18.117Z,93.50
2019-03-26T03:23:34.650Z,93.50
2019-03-26T03:24:51.104Z,93.40
2019-03-26T03:26:08.073Z,93.30
2019-03-26T03:27:24.413Z,93.20
2019-03-26T03:28:41.187Z,93.20
2019-03-26T03:29:58.121Z,93.20
2019-03-26T03:31:14.661Z,93.10
2019-03-26T03:32:31.093Z,93.10
2019-03-26T03:33:48.290Z,93.10
2019-03-26T03:35:04.694Z,93.00
2019-03-26T03:36:21.849Z,93.10
2019-03-26T03:37:38.250Z,93.20
2019-03-26T03:38:55.502Z,93.20
2019-03-26T03:40:11.778Z,93.10
2019-03-26T03:41:28.952Z,93.30
2019-03-26T03:42:46.126Z,93.30
2019-03-26T03:44:02.720Z,93.40
2019-03-26T03:45:19.285Z,93.40
2019-03-26T03:46:36.432Z,93.30
2019-03-26T03:47:53.201Z,93.20
2019-03-26T03:49:09.518Z,93.20
2019-03-26T03:50:25.844Z,93.10
2019-03-26T03:51:42.769Z,93.20
2019-03-26T03:52:59.323Z,93.40
2019-03-26T03:54:16.468Z,93.40
2019-03-26T03:55:33.014Z,93.40
2019-03-26T03:56:50.126Z,93.40
2019-03-26T03:58:07.791Z,93.30
2019-03-26T03:59:24.932Z,93.30
2019-03-26T04:00:43.028Z,93.30
2019-03-26T04:01:59.729Z,93.30
2019-03-26T04:03:16.733Z,93.20
2019-03-26T04:04:33.333Z,93.20
2019-03-26T04:05:49.860Z,93.20
2019-03-26T04:07:05.317Z,93.10
2019-03-26T04:08:29.747Z,93.10
2019-03-26T04:09:46.933Z,93.00
2019-03-26T04:11:03.678Z,92.90
2019-03-26T04:12:20.045Z,92.90
2019-03-26T04:13:37.003Z,92.90
2019-03-26T04:14:53.276Z,92.90
2019-03-26T04:16:10.041Z,92.80
2019-03-26T04:17:26.545Z,92.80
2019-03-26T04:18:43.199Z,92.80
2019-03-26T04:19:59.701Z,92.70
2019-03-26T04:21:16.269Z,92.70
2019-03-26T04:22:33.393Z,92.70
2019-03-26T04:23:49.836Z,92.60
2019-03-26T04:25:06.377Z,92.60
2019-03-26T04:26:22.808Z,92.60
2019-03-26T04:27:39.484Z,92.60
2019-03-26T04:28:55.796Z,92.50
2019-03-26T04:30:12.307Z,92.40
2019-03-26T04:31:28.651Z,92.50
2019-03-26T04:32:45.139Z,92.50
2019-03-26T04:34:01.396Z,92.50
2019-03-26T04:35:18.192Z,92.40
2019-03-26T04:36:34.482Z,92.40
2019-03-26T04:37:51.162Z,92.40
2019-03-26T04:39:07.664Z,92.40
2019-03-26T04:40:24.133Z,92.40
2019-03-26T04:41:41.097Z,92.40
2019-03-26T04:42:58.237Z,92.40
2019-03-26T04:44:14.574Z,92.40
2019-03-26T04:45:31.231Z,92.50
2019-03-26T04:46:47.744Z,92.50
2019-03-26T04:48:04.511Z,92.60
2019-03-26T04:49:20.925Z,92.50
2019-03-26T04:50:38.149Z,92.70
2019-03-26T04:51:54.639Z,92.60
2019-03-26T04:53:11.237Z,92.70
2019-03-26T04:54:27.485Z,92.70
2019-03-26T04:55:43.913Z,92.70
2019-03-26T04:57:00.514Z,92.70
2019-03-26T04:58:17.437Z,92.80
2019-03-26T04:59:36.677Z,92.80
2019-03-26T05:00:53.253Z,92.80
2019-03-26T05:02:10.406Z,92.80
2019-03-26T05:03:26.978Z,92.70
2019-03-26T05:04:43.650Z,92.70
2019-03-26T05:06:00.164Z,92.80
2019-03-26T05:07:17.050Z,92.90
2019-03-26T05:08:33.474Z,92.80
2019-03-26T05:09:50.639Z,92.80
2019-03-26T05:11:07.216Z,92.80
2019-03-26T05:12:24.398Z,92.70
2019-03-26T05:13:40.864Z,92.70
2019-03-26T05:14:58.489Z,92.70
2019-03-26T05:16:15.453Z,92.70
2019-03-26T05:17:33.005Z,92.70
2019-03-26T05:18:49.417Z,92.70
2019-03-26T05:20:06.220Z,92.70
2019-03-26T05:21:22.841Z,92.60
2019-03-26T05:22:39.120Z,92.70
2019-03-26T05:23:55.984Z,92.70
2019-03-26T05:25:12.533Z,92.70
2019-03-26T05:26:29.713Z,92.70
2019-03-26T05:27:46.615Z,92.70
2019-03-26T05:29:03.224Z,92.70
2019-03-26T05:30:20.893Z,92.70
2019-03-26T05:31:37.697Z,92.60
2019-03-26T05:32:54.845Z,92.60
2019-03-26T05:34:12.692Z,92.50
2019-03-26T05:35:29.139Z,92.50
2019-03-26T05:36:51.342Z,92.30
2019-03-26T05:38:03.948Z,92.20
2019-03-26T05:39:20.871Z,92.00
2019-03-26T05:40:37.169Z,91.70
2019-03-26T05:41:53.435Z,91.20
2019-03-26T05:43:10.506Z,90.80
2019-03-26T05:44:27.018Z,90.50
2019-03-26T05:45:44.084Z,90.40
2019-03-26T05:47:01.822Z,90.30
2019-03-26T05:48:18.472Z,90.30
2019-03-26T05:49:35.390Z,90.30
2019-03-26T05:50:51.914Z,90.30
2019-03-26T05:52:08.209Z,90.20
2019-03-26T05:53:25.017Z,90.20
2019-03-26T05:54:40.380Z,90.30
2019-03-26T05:56:04.753Z,90.30
2019-03-26T05:57:21.305Z,90.30
2019-03-26T05:58:37.719Z,90.40
2019-03-26T05:59:54.189Z,90.50
2019-03-26T06:01:10.920Z,90.50
2019-03-26T06:02:27.201Z,90.50
2019-03-26T06:03:43.526Z,90.50
2019-03-26T06:04:59.927Z,90.50
2019-03-26T06:06:16.305Z,90.50
2019-03-26T06:07:32.576Z,90.50
2019-03-26T06:08:49.748Z,90.50
2019-03-26T06:10:06.928Z,90.50
2019-03-26T06:11:24.046Z,90.40
2019-03-26T06:12:41.158Z,90.40
2019-03-26T06:13:58.310Z,90.40
2019-03-26T06:15:15.193Z,90.40
2019-03-26T06:16:38.272Z,90.40
2019-03-26T06:17:49.988Z,90.40
2019-03-26T06:19:06.608Z,90.30
2019-03-26T06:20:23.195Z,90.30
2019-03-26T06:21:38.922Z,90.30
2019-03-26T06:23:03.321Z,90.20
2019-03-26T06:24:20.049Z,90.20
2019-03-26T06:25:36.998Z,90.20
2019-03-26T06:26:53.335Z,90.10
2019-03-26T06:28:09.645Z,90.20
2019-03-26T06:29:26.842Z,90.10
2019-03-26T06:30:43.179Z,90.30
2019-03-26T06:32:00.425Z,90.10
2019-03-26T06:33:16.968Z,90.20
2019-03-26T06:34:33.806Z,90.30
2019-03-26T06:35:50.273Z,90.20
2019-03-26T06:37:17.343Z,90.10
2019-03-26T06:38:24.938Z,90.20
2019-03-26T06:39:42.203Z,90.20
2019-03-26T06:40:58.574Z,90.10
2019-03-26T06:42:14.973Z,90.10
2019-03-26T06:43:31.645Z,89.90
2019-03-26T06:44:48.032Z,89.60
2019-03-26T06:46:04.533Z,89.70
2019-03-26T06:47:21.268Z,89.50
2019-03-26T06:48:38.522Z,89.30
2019-03-26T06:49:55.239Z,89.00
2019-03-26T06:51:11.780Z,88.90
2019-03-26T06:52:27.335Z,88.70
2019-03-26T06:53:52.072Z,88.50
2019-03-26T06:55:08.563Z,88.10
2019-03-26T06:56:24.910Z,87.80
2019-03-26T06:57:41.980Z,87.80
2019-03-26T06:58:59.069Z,87.80
2019-03-26T07:00:15.462Z,87.30
2019-03-26T07:01:31.841Z,87.30
2019-03-26T07:02:48.302Z,87.40
2019-03-26T07:04:04.048Z,87.50
2019-03-26T07:05:29.232Z,87.70
2019-03-26T07:06:46.241Z,87.40
2019-03-26T07:08:03.450Z,87.20
2019-03-26T07:09:19.908Z,86.50
2019-03-26T07:10:36.681Z,86.20
2019-03-26T07:11:53.040Z,86.10
2019-03-26T07:13:09.473Z,85.40
2019-03-26T07:14:25.942Z,85.00
2019-03-26T07:15:42.379Z,84.90
2019-03-26T07:16:58.707Z,84.50
2019-03-26T07:18:14.224Z,84.20
2019-03-26T07:19:38.678Z,83.70
2019-03-26T07:20:54.984Z,83.20
2019-03-26T07:22:12.055Z,83.00
2019-03-26T07:23:29.073Z,82.70
2019-03-26T07:24:46.048Z,81.40
2019-03-26T07:26:02.442Z,80.80
2019-03-26T07:27:18.949Z,79.60
2019-03-26T07:28:35.953Z,78.50
2019-03-26T07:29:52.938Z,77.90
2019-03-26T07:31:09.357Z,77.10
2019-03-26T07:32:26.912Z,76.30
2019-03-26T07:33:43.926Z,74.80
2019-03-26T07:35:01.318Z,74.00
2019-03-26T07:36:17.899Z,72.20
2019-03-26T07:37:44.568Z,70.50
2019-03-26T07:38:52.826Z,69.30
2019-03-26T07:40:10.147Z,68.00
2019-03-26T07:41:26.868Z,67.20
2019-03-26T07:44:40.193Z,64.10
2019-03-26T07:45:55.741Z,60.10
2019-03-26T07:47:20.145Z,56.20
2019-03-26T07:48:36.517Z,54.30
2019-03-26T07:49:52.989Z,52.20
2019-03-26T07:51:08.569Z,50.60
2019-03-26T07:54:09.348Z,48.80
2019-03-26T07:55:25.750Z,48.00
2019-03-26T07:56:42.830Z,48.80
2019-03-26T07:57:59.968Z,48.50
2019-03-26T07:59:17.149Z,48.30
2019-03-26T08:00:34.461Z,48.30
2019-03-26T08:01:51.761Z,48.00
2019-03-26T08:03:09.895Z,48.50
2019-03-26T08:04:26.290Z,48.40
2019-03-26T08:05:43.567Z,48.40
2019-03-26T08:07:00.104Z,48.30
2019-03-26T08:08:15.621Z,48.60
2019-03-26T08:09:32.206Z,47.60
2019-03-26T08:10:48.753Z,46.10
2019-03-26T08:12:05.195Z,45.80
2019-03-26T08:13:22.583Z,45.00
2019-03-26T08:14:39.026Z,44.20
2019-03-26T08:15:56.221Z,43.60
2019-03-26T08:17:12.511Z,41.10
2019-03-26T08:18:29.069Z,40.40
2019-03-26T08:19:46.135Z,40.80
2019-03-26T08:21:02.934Z,40.20
2019-03-26T08:22:19.315Z,38.10
2019-03-26T08:23:38.346Z,36.70
2019-03-26T08:24:55.101Z,33.60
2019-03-26T08:26:11.434Z,31.70
2019-03-26T08:27:27.916Z,30.00
2019-03-26T08:28:44.435Z,28.00
2019-03-26T08:30:01.061Z,26.60
2019-03-26T08:31:17.648Z,25.60
2019-03-26T08:32:37.068Z,26.20
2019-03-26T08:33:53.266Z,25.70
2019-03-26T08:35:10.168Z,25.40
2019-03-26T08:36:26.695Z,25.30
2019-03-26T08:37:43.078Z,25.60
2019-03-26T08:38:59.986Z,26.00
2019-03-26T08:40:16.903Z,26.60
2019-03-26T08:41:33.347Z,27.10
2019-03-26T08:42:50.516Z,27.80
2019-03-26T08:44:07.514Z,28.80
2019-03-26T08:45:25.221Z,29.50
2019-03-26T08:46:41.882Z,30.10
2019-03-26T08:47:58.752Z,30.30
2019-03-26T08:49:15.679Z,30.70
2019-03-26T08:50:32.206Z,31.40
2019-03-26T08:51:48.744Z,31.80
2019-03-26T08:53:05.117Z,32.70
2019-03-26T08:54:21.982Z,33.20
2019-03-26T08:55:38.369Z,34.60
2019-03-26T08:56:55.390Z,35.40
2019-03-26T08:58:12.466Z,36.40
2019-03-26T08:59:31.576Z,36.90
2019-03-26T09:00:49.210Z,37.60
2019-03-26T09:02:06.096Z,38.50
2019-03-26T09:03:22.686Z,39.20
2019-03-26T09:04:38.133Z,39.50
2019-03-26T09:05:55.345Z,39.40
2019-03-26T09:07:12.681Z,39.40
2019-03-26T09:08:29.376Z,39.40
2019-03-26T09:09:46.293Z,39.50
2019-03-26T09:11:02.957Z,38.40
2019-03-26T09:12:20.164Z,38.80
2019-03-26T09:13:36.689Z,39.30
2019-03-26T09:14:53.953Z,39.20
2019-03-26T09:16:11.525Z,39.00
2019-03-26T09:17:27.857Z,38.90
2019-03-26T09:18:43.446Z,39.00
2019-03-26T09:22:05.560Z,39.10
2019-03-26T09:23:22.123Z,38.00
2019-03-26T09:24:39.102Z,37.90
2019-03-26T09:25:56.745Z,37.90
2019-03-26T09:27:13.125Z,38.30
2019-03-26T09:28:30.269Z,36.40
2019-03-26T09:29:47.630Z,34.60
2019-03-26T09:31:04.008Z,30.80
2019-03-26T09:32:20.531Z,28.90
2019-03-26T09:33:37.661Z,27.60
2019-03-26T09:34:53.174Z,27.50
2019-03-26T09:36:17.713Z,27.10
2019-03-26T09:37:34.176Z,26.70
2019-03-26T09:38:51.504Z,26.80
2019-03-26T09:40:07.870Z,27.20
2019-03-26T09:41:24.891Z,27.50
2019-03-26T09:42:41.919Z,26.60
2019-03-26T09:43:58.406Z,26.30
2019-03-26T09:45:15.157Z,26.90
2019-03-26T09:46:31.536Z,27.40
2019-03-26T09:47:48.422Z,28.10
2019-03-26T09:49:04.769Z,28.30
2019-03-26T09:50:21.509Z,28.00
2019-03-26T09:51:38.376Z,28.50
2019-03-26T09:52:54.661Z,28.60
2019-03-26T09:54:11.145Z,29.00
2019-03-26T09:55:28.389Z,28.90
2019-03-26T09:56:45.600Z,29.10
2019-03-26T09:58:02.333Z,29.30
2019-03-26T09:59:18.668Z,31.50
2019-03-26T10:00:35.649Z,32.90
2019-03-26T10:01:52.160Z,34.20
2019-03-26T10:03:08.427Z,34.20
2019-03-26T10:04:25.271Z,34.70
2019-03-26T10:05:41.949Z,35.20
2019-03-26T10:06:59.104Z,35.50
2019-03-26T10:08:17.819Z,35.70
2019-03-26T10:09:33.864Z,36.40
2019-03-26T10:10:50.529Z,36.20
2019-03-26T10:12:07.036Z,36.60
2019-03-26T10:13:23.517Z,36.10
2019-03-26T10:14:40.054Z,36.80
2019-03-26T10:15:57.293Z,37.70
2019-03-26T10:17:12.876Z,38.00
2019-03-26T10:18:29.277Z,38.20
2019-03-26T10:19:45.885Z,37.80
2019-03-26T10:21:02.403Z,37.70
2019-03-26T10:22:20.136Z,38.00
2019-03-26T10:23:37.003Z,37.60
2019-03-26T10:24:54.243Z,38.00
2019-03-26T10:26:10.868Z,38.90
2019-03-26T10:27:28.002Z,39.80
2019-03-26T10:28:44.637Z,40.70
2019-03-26T10:30:01.133Z,40.60
2019-03-26T10:31:17.565Z,40.50
2019-03-26T10:32:36.684Z,40.80
2019-03-26T10:33:53.374Z,40.90
2019-03-26T10:35:09.703Z,40.80
2019-03-26T10:36:26.883Z,40.90
2019-03-26T10:37:43.905Z,40.50
2019-03-26T10:39:05.397Z,40.60
2019-03-26T10:40:19.526Z,41.00
2019-03-26T10:41:35.997Z,40.20
2019-03-26T10:42:52.757Z,39.20
2019-03-26T10:44:09.868Z,37.30
2019-03-26T10:45:27.954Z,36.40
2019-03-26T10:46:44.761Z,33.40
2019-03-26T10:48:01.296Z,32.00
2019-03-26T10:49:16.674Z,31.30
2019-03-26T10:50:33.968Z,30.60
2019-03-26T10:51:50.469Z,30.70
2019-03-26T10:53:06.860Z,31.80
2019-03-26T10:54:23.445Z,32.30
2019-03-26T10:55:39.967Z,32.30
2019-03-26T10:56:56.501Z,33.00
2019-03-26T10:58:13.055Z,33.50
2019-03-26T10:59:29.355Z,33.90
2019-03-26T11:00:45.660Z,34.20
2019-03-26T11:02:02.320Z,34.30
2019-03-26T11:03:20.089Z,33.90
2019-03-26T11:04:37.406Z,34.20
2019-03-26T11:05:54.267Z,34.90
2019-03-26T11:07:10.852Z,35.30
2019-03-26T11:08:26.290Z,35.60
2019-03-26T11:09:50.751Z,36.50
2019-03-26T11:11:07.326Z,37.30
2019-03-26T11:12:23.822Z,38.00
2019-03-26T11:13:40.245Z,38.70
2019-03-26T11:14:56.721Z,39.70
2019-03-26T11:16:13.441Z,40.50
2019-03-26T11:17:29.955Z,41.10
2019-03-26T11:18:46.358Z,41.60
2019-03-26T11:20:03.016Z,41.80
2019-03-26T11:21:19.356Z,41.80
2019-03-26T11:22:35.799Z,42.10
2019-03-26T11:23:52.204Z,42.70
2019-03-26T11:25:11.866Z,43.10
2019-03-26T11:26:27.369Z,43.40
2019-03-26T11:27:44.280Z,43.90
2019-03-26T11:29:00.761Z,44.00
2019-03-26T11:30:17.332Z,44.50
2019-03-26T11:31:34.369Z,44.60
2019-03-26T11:32:51.794Z,44.90
2019-03-26T11:34:09.020Z,45.00
2019-03-26T11:35:25.981Z,45.10
2019-03-26T11:36:43.198Z,45.40
2019-03-26T11:37:59.713Z,45.30
2019-03-26T11:39:16.896Z,45.20
2019-03-26T11:40:34.005Z,44.80
2019-03-26T11:41:50.455Z,44.60
2019-03-26T11:43:07.106Z,44.20
2019-03-26T11:44:23.419Z,43.70
2019-03-26T11:45:40.756Z,43.40
2019-03-26T11:46:58.054Z,43.10
2019-03-26T11:48:14.437Z,42.50
2019-03-26T11:49:30.933Z,41.30
2019-03-26T11:50:46.480Z,40.80
2019-03-26T11:52:29.946Z,40.60
2019-03-26T11:53:54.380Z,40.30
2019-03-26T11:55:11.065Z,39.70
2019-03-26T11:56:27.414Z,39.60
2019-03-26T11:57:44.209Z,39.40
2019-03-26T11:59:01.322Z,38.50
2019-03-26T12:00:20.875Z,39.00
2019-03-26T12:01:37.336Z,39.20
2019-03-26T12:02:54.708Z,39.50
2019-03-26T12:04:11.181Z,39.40
2019-03-26T12:05:27.578Z,39.80
2019-03-26T12:06:44.164Z,40.20
2019-03-26T12:08:00.761Z,40.50
2019-03-26T12:09:17.477Z,40.70
2019-03-26T12:10:35.009Z,40.50
2019-03-26T12:11:51.376Z,40.50
2019-03-26T12:13:08.303Z,40.20
2019-03-26T12:14:25.365Z,40.50
2019-03-26T12:15:41.716Z,40.50
2019-03-26T12:16:57.424Z,40.40
2019-03-26T12:20:22.094Z,40.80
2019-03-26T12:21:42.425Z,40.50
2019-03-26T12:22:58.957Z,40.60
2019-03-26T12:24:15.496Z,40.40
2019-03-26T12:25:32.044Z,40.20
2019-03-26T12:26:49.166Z,39.80
2019-03-26T12:28:06.692Z,39.00
2019-03-26T12:29:23.186Z,38.90
2019-03-26T12:30:39.952Z,39.00
2019-03-26T12:31:56.709Z,39.10
2019-03-26T12:33:13.112Z,39.10
2019-03-26T12:34:30.310Z,39.20
2019-03-26T12:35:46.741Z,38.90
2019-03-26T12:37:03.146Z,38.80
2019-03-26T12:38:19.853Z,38.50
2019-03-26T12:39:36.504Z,38.10
2019-03-26T12:40:53.014Z,38.10
2019-03-26T12:42:09.868Z,37.60
2019-03-26T12:43:26.248Z,38.70
2019-03-26T12:44:42.537Z,38.50
2019-03-26T12:46:01.810Z,38.10
2019-03-26T12:47:18.026Z,37.70
2019-03-26T12:48:34.524Z,37.60
2019-03-26T12:49:51.113Z,37.40
2019-03-26T12:51:07.737Z,37.50
2019-03-26T12:52:24.092Z,37.10
2019-03-26T12:53:40.738Z,37.10
2019-03-26T12:54:57.467Z,36.40
2019-03-26T12:56:13.945Z,36.00
2019-03-26T12:57:30.364Z,36.50
2019-03-26T12:58:47.046Z,36.80
2019-03-26T13:00:04.232Z,37.10
2019-03-26T13:01:21.001Z,36.70
2019-03-26T13:02:37.612Z,36.40
2019-03-26T13:03:54.801Z,36.30
2019-03-26T13:05:11.285Z,36.20
2019-03-26T13:06:27.937Z,36.20
2019-03-26T13:07:44.338Z,36.50
2019-03-26T13:09:01.468Z,36.40
2019-03-26T13:10:19.309Z,36.90
2019-03-26T13:11:35.745Z,37.30
2019-03-26T13:12:52.300Z,37.90
2019-03-26T13:14:07.785Z,38.20
2019-03-26T13:15:24.207Z,38.20
2019-03-26T13:16:41.286Z,38.80
2019-03-26T13:17:58.007Z,39.60
2019-03-26T13:19:13.466Z,40.20
2019-03-26T13:20:37.840Z,40.60
2019-03-26T13:21:54.483Z,40.90
2019-03-26T13:23:10.893Z,41.00
2019-03-26T13:24:27.497Z,41.10
2019-03-26T13:25:44.381Z,41.00
2019-03-26T13:27:00.934Z,41.10
2019-03-26T13:28:17.324Z,41.20
2019-03-26T13:29:33.843Z,41.30
2019-03-26T13:30:50.382Z,41.20
2019-03-26T13:32:06.987Z,41.30
2019-03-26T13:33:23.953Z,41.50
2019-03-26T13:34:40.629Z,41.50
2019-03-26T13:35:57.001Z,41.90
2019-03-26T13:37:13.857Z,41.40
2019-03-26T13:38:30.452Z,42.10
2019-03-26T13:39:46.842Z,41.90
2019-03-26T13:41:03.463Z,41.60
2019-03-26T13:42:19.826Z,41.00
2019-03-26T13:43:36.877Z,40.90
2019-03-26T13:44:53.193Z,41.20
2019-03-26T13:46:09.910Z,41.30
2019-03-26T13:47:26.398Z,40.80
2019-03-26T13:48:43.305Z,41.00
2019-03-26T13:49:59.608Z,40.20
2019-03-26T13:51:16.010Z,40.10
2019-03-26T13:52:32.717Z,40.40
2019-03-26T13:53:50.002Z,40.50
2019-03-26T13:55:06.709Z,40.60
2019-03-26T13:56:23.152Z,40.60
2019-03-26T13:57:39.645Z,40.60
2019-03-26T13:58:56.092Z,41.00
2019-03-26T14:00:12.673Z,40.90
2019-03-26T14:01:29.759Z,40.90
2019-03-26T14:02:46.302Z,41.30
2019-03-26T14:04:02.843Z,41.10
2019-03-26T14:05:19.810Z,41.30
2019-03-26T14:06:36.880Z,41.40
2019-03-26T14:07:54.115Z,41.50
2019-03-26T14:09:12.182Z,41.40
2019-03-26T14:10:40.086Z,41.10
2019-03-26T14:11:47.708Z,40.70
2019-03-26T14:13:04.268Z,40.70
2019-03-26T14:14:21.348Z,41.10
2019-03-26T14:15:37.956Z,41.20
2019-03-26T14:16:58.481Z,40.90
2019-03-26T14:18:15.074Z,40.90
2019-03-26T14:19:31.533Z,41.00
2019-03-26T14:20:48.802Z,40.70
2019-03-26T14:22:05.372Z,40.50
2019-03-26T14:23:21.737Z,40.50
2019-03-26T14:24:38.509Z,40.50
2019-03-26T14:25:54.951Z,40.10
2019-03-26T14:27:11.433Z,39.90
2019-03-26T14:28:28.295Z,39.70
2019-03-26T14:29:44.604Z,40.10
2019-03-26T14:31:01.018Z,40.10
2019-03-26T14:32:17.427Z,39.70
2019-03-26T14:33:34.657Z,39.70
2019-03-26T14:34:51.854Z,39.50
2019-03-26T14:36:09.090Z,39.20
2019-03-26T14:37:25.651Z,38.80
2019-03-26T14:38:41.962Z,38.50
2019-03-26T14:39:58.393Z,38.90
2019-03-26T14:41:14.756Z,39.70
2019-03-26T14:42:31.004Z,40.20
2019-03-26T14:43:47.536Z,40.60
2019-03-26T14:45:04.637Z,40.80
2019-03-26T14:46:21.235Z,41.00
2019-03-26T14:47:38.841Z,41.50
2019-03-26T14:48:55.304Z,41.70
2019-03-26T14:50:12.204Z,41.60
2019-03-26T14:51:28.590Z,42.00
2019-03-26T14:52:45.364Z,42.00
2019-03-26T14:54:02.000Z,42.10
2019-03-26T14:55:19.101Z,42.00
2019-03-26T14:56:36.214Z,42.40
2019-03-26T14:57:53.349Z,42.80
2019-03-26T14:59:10.013Z,42.90
2019-03-26T15:00:26.442Z,43.30
2019-03-26T15:01:42.939Z,43.60
2019-03-26T15:02:59.539Z,43.40
2019-03-26T15:04:16.109Z,43.60
2019-03-26T15:05:32.514Z,43.30
2019-03-26T15:06:47.964Z,43.80
2019-03-26T15:08:12.359Z,44.30
2019-03-26T15:09:28.897Z,44.30
2019-03-26T15:10:45.936Z,44.20
2019-03-26T15:12:03.024Z,44.40
2019-03-26T15:13:19.718Z,43.40
2019-03-26T15:14:36.753Z,43.30
2019-03-26T15:15:53.797Z,42.90
2019-03-26T15:17:10.723Z,42.50
2019-03-26T15:18:27.783Z,42.30
2019-03-26T15:19:44.268Z,42.20
2019-03-26T15:21:01.518Z,42.40
2019-03-26T15:22:18.637Z,42.30
2019-03-26T15:23:35.046Z,41.80
2019-03-26T15:24:52.359Z,41.50
2019-03-26T15:26:09.021Z,41.60
2019-03-26T15:27:25.469Z,41.40
2019-03-26T15:28:42.371Z,41.30
2019-03-26T15:29:59.503Z,40.60
2019-03-26T15:31:16.325Z,40.80
2019-03-26T15:32:33.141Z,41.10
2019-03-26T15:33:49.540Z,41.70
2019-03-26T15:35:06.113Z,41.70
2019-03-26T15:36:22.629Z,42.40
2019-03-26T15:37:38.961Z,42.20
2019-03-26T15:38:55.518Z,42.50
2019-03-26T15:40:12.178Z,42.80
2019-03-26T15:41:30.451Z,43.20
2019-03-26T15:42:46.795Z,43.10
2019-03-26T15:44:03.225Z,43.00
2019-03-26T15:45:19.529Z,43.30
2019-03-26T15:46:36.657Z,44.10
2019-03-26T15:47:53.853Z,44.70
2019-03-26T15:49:10.976Z,45.00
2019-03-26T15:50:28.290Z,45.50
2019-03-26T15:51:45.509Z,45.50
2019-03-26T15:53:02.013Z,45.60
2019-03-26T15:54:18.513Z,45.80
2019-03-26T15:55:34.977Z,45.70
2019-03-26T15:56:52.588Z,45.80
2019-03-26T15:58:09.920Z,45.80
2019-03-26T15:59:26.463Z,46.50
2019-03-26T16:00:42.752Z,47.10
2019-03-26T16:01:59.997Z,47.30
2019-03-26T16:03:16.558Z,47.40
2019-03-26T16:04:33.243Z,47.40
2019-03-26T16:05:49.620Z,47.30
2019-03-26T16:07:06.385Z,47.30
2019-03-26T16:08:22.897Z,47.30
2019-03-26T16:09:39.637Z,47.20
2019-03-26T16:10:55.967Z,47.50
2019-03-26T16:12:16.207Z,47.70
2019-03-26T16:13:35.948Z,48.10
2019-03-26T16:14:53.515Z,48.10
2019-03-26T16:16:09.983Z,49.30
2019-03-26T16:17:26.755Z,49.10
2019-03-26T16:18:43.097Z,49.20
2019-03-26T16:19:59.477Z,49.40
2019-03-26T16:21:18.857Z,49.20
2019-03-26T16:22:36.056Z,49.10
2019-03-26T16:23:53.310Z,49.00
2019-03-26T16:25:10.103Z,49.30
2019-03-26T16:26:28.120Z,49.60
2019-03-26T16:27:44.728Z,50.10
2019-03-26T16:29:02.038Z,50.00
2019-03-26T16:30:18.569Z,50.80
2019-03-26T16:31:35.077Z,50.10
2019-03-26T16:32:51.999Z,50.40
2019-03-26T16:34:08.543Z,50.30
2019-03-26T16:35:25.069Z,50.20
2019-03-26T16:36:41.876Z,50.40
2019-03-26T16:37:58.585Z,50.70
2019-03-26T16:39:15.092Z,50.30
2019-03-26T16:40:31.523Z,50.40
2019-03-26T16:41:49.609Z,50.60